createdAt,value
2022-08-25T00:01:56.610Z,15.90
2022-08-25T00:04:24.088Z,16.00
2022-08-25T00:06:53.245Z,16.00
2022-08-25T00:09:22.593Z,16.00
2022-08-25T00:11:50.213Z,16.10
2022-08-25T00:14:20.435Z,16.10
2022-08-25T00:16:47.857Z,16.10
2022-08-25T00:19:18.280Z,15.90
2022-08-25T00:21:45.901Z,15.90
2022-08-25T00:24:13.982Z,15.80
2022-08-25T00:26:42.550Z,15.70
2022-08-25T00:29:10.217Z,15.70
2022-08-25T00:31:38.585Z,15.70
2022-08-25T00:34:08.623Z,15.70
2022-08-25T00:36:36.000Z,15.60
2022-08-25T00:39:03.461Z,15.70
2022-08-25T00:41:30.562Z,15.60
2022-08-25T00:43:59.801Z,15.50
2022-08-25T00:46:47.861Z,15.50
2022-08-25T00:49:36.349Z,15.70
2022-08-25T00:52:24.254Z,15.90
2022-08-25T00:54:53.866Z,15.80
2022-08-25T00:57:34.558Z,15.80
2022-08-25T01:00:22.629Z,15.90
2022-08-25T01:02:50.517Z,16.00
2022-08-25T01:05:19.436Z,16.20
2022-08-25T01:07:46.693Z,16.20
2022-08-25T01:10:14.183Z,16.40
2022-08-25T01:12:41.464Z,16.20
2022-08-25T01:15:10.346Z,16.10
2022-08-25T01:17:56.634Z,16.20
2022-08-25T01:20:29.287Z,16.10
2022-08-25T01:22:57.634Z,16.20
2022-08-25T01:25:33.629Z,16.30
2022-08-25T01:28:00.930Z,16.30
2022-08-25T01:30:28.277Z,16.40
2022-08-25T01:32:55.404Z,16.40
2022-08-25T01:35:22.785Z,16.50
2022-08-25T01:37:50.052Z,16.40
2022-08-25T01:40:17.313Z,16.50
2022-08-25T01:43:06.991Z,16.60
2022-08-25T01:45:35.055Z,16.70
2022-08-25T01:48:02.794Z,16.70
2022-08-25T01:50:30.157Z,16.60
2022-08-25T01:52:59.998Z,16.40
2022-08-25T01:55:27.502Z,16.30
2022-08-25T01:57:54.753Z,16.20
2022-08-25T02:00:22.816Z,16.20
2022-08-25T02:02:52.244Z,16.10
2022-08-25T02:05:23.754Z,16.10
2022-08-25T02:07:51.197Z,16.10
2022-08-25T02:10:18.431Z,16.10
2022-08-25T02:12:45.832Z,16.00
2022-08-25T02:15:13.059Z,16.10
2022-08-25T02:17:40.274Z,16.20
2022-08-25T02:20:09.686Z,16.10
2022-08-25T02:22:37.167Z,16.10
2022-08-25T02:25:05.222Z,16.20
2022-08-25T02:27:32.541Z,16.30
2022-08-25T02:29:59.730Z,16.30
2022-08-25T02:32:28.067Z,16.20
2022-08-25T02:34:55.243Z,16.20
2022-08-25T02:37:22.519Z,16.20
2022-08-25T02:39:50.389Z,16.20
2022-08-25T02:42:17.641Z,16.00
2022-08-25T02:44:44.827Z,16.00
2022-08-25T02:47:12.018Z,15.90
2022-08-25T02:49:39.208Z,16.00
2022-08-25T02:52:06.506Z,16.00
2022-08-25T02:54:33.731Z,15.90
2022-08-25T02:57:01.021Z,15.90
2022-08-25T02:59:28.286Z,15.70
2022-08-25T03:01:55.778Z,15.80
2022-08-25T03:04:23.076Z,15.80
2022-08-25T03:06:50.440Z,15.70
2022-08-25T03:09:18.288Z,15.70
2022-08-25T03:11:47.169Z,15.70
2022-08-25T03:14:14.713Z,15.80
2022-08-25T03:16:45.801Z,15.70
2022-08-25T03:19:13.952Z,15.70
2022-08-25T03:21:41.355Z,15.70
2022-08-25T03:24:08.657Z,15.70
2022-08-25T03:26:53.909Z,15.70
2022-08-25T03:29:25.247Z,15.80
2022-08-25T03:31:53.080Z,15.70
2022-08-25T03:34:20.672Z,15.60
2022-08-25T03:36:49.422Z,15.60
2022-08-25T03:39:17.544Z,15.60
2022-08-25T03:41:44.847Z,15.70
2022-08-25T03:44:12.047Z,15.70
2022-08-25T03:46:46.752Z,15.70
2022-08-25T03:49:18.875Z,15.80
2022-08-25T03:51:50.136Z,15.80
2022-08-25T03:54:19.280Z,15.80
2022-08-25T03:56:46.438Z,15.90
2022-08-25T03:59:13.818Z,15.90
2022-08-25T04:01:42.263Z,15.90
2022-08-25T04:04:10.281Z,16.00
2022-08-25T04:06:38.681Z,16.10
2022-08-25T04:09:05.897Z,16.00
2022-08-25T04:11:33.006Z,16.00
2022-08-25T04:14:01.425Z,16.10
2022-08-25T04:16:32.610Z,16.10
2022-08-25T04:19:01.834Z,16.30
2022-08-25T04:21:30.049Z,16.20
2022-08-25T04:23:57.278Z,16.30
2022-08-25T04:26:33.427Z,16.30
2022-08-25T04:29:01.116Z,16.30
2022-08-25T04:31:28.561Z,16.50
2022-08-25T04:33:55.973Z,16.60
2022-08-25T04:36:23.048Z,16.60
2022-08-25T04:38:50.672Z,16.60
2022-08-25T04:41:20.518Z,16.70
2022-08-25T04:43:47.741Z,16.80
2022-08-25T04:46:26.163Z,16.90
2022-08-25T04:48:54.185Z,16.90
2022-08-25T04:51:23.805Z,17.00
2022-08-25T04:53:51.227Z,17.10
2022-08-25T04:56:19.925Z,17.10
2022-08-25T04:58:47.608Z,17.30
2022-08-25T05:01:19.226Z,17.30
2022-08-25T05:03:47.092Z,17.30
2022-08-25T05:06:16.152Z,17.40
2022-08-25T05:08:45.768Z,17.50
2022-08-25T05:11:14.955Z,17.70
2022-08-25T05:13:43.032Z,17.90
2022-08-25T05:16:11.496Z,18.00
2022-08-25T05:18:38.721Z,18.10
2022-08-25T05:21:14.301Z,18.20
2022-08-25T05:23:41.405Z,18.20
2022-08-25T05:26:22.304Z,18.20
2022-08-25T05:28:50.576Z,18.10
2022-08-25T05:31:17.769Z,18.20
2022-08-25T05:33:44.902Z,18.20
2022-08-25T05:36:12.892Z,18.20
2022-08-25T05:38:41.155Z,18.30
2022-08-25T05:41:13.385Z,18.30
2022-08-25T05:43:41.470Z,18.40
2022-08-25T05:46:09.111Z,18.50
2022-08-25T05:48:36.288Z,18.60
2022-08-25T05:51:05.174Z,18.50
2022-08-25T05:53:34.093Z,18.50
2022-08-25T05:56:02.192Z,18.60
2022-08-25T05:58:30.005Z,18.60
2022-08-25T06:00:57.615Z,18.60
2022-08-25T06:03:25.027Z,18.50
2022-08-25T06:05:52.187Z,18.50
2022-08-25T06:08:20.149Z,18.50
2022-08-25T06:10:52.606Z,18.60
2022-08-25T06:13:28.032Z,18.70
2022-08-25T06:16:00.156Z,18.60
2022-08-25T06:18:27.368Z,18.60
2022-08-25T06:20:54.519Z,18.70
2022-08-25T06:23:22.027Z,18.70
2022-08-25T06:25:52.883Z,18.80
2022-08-25T06:28:20.397Z,18.80
2022-08-25T06:30:48.169Z,18.80
2022-08-25T06:33:15.767Z,18.80
2022-08-25T06:35:43.660Z,18.80
2022-08-25T06:38:11.416Z,18.90
2022-08-25T06:40:38.838Z,18.90
2022-08-25T06:43:09.092Z,18.90
2022-08-25T06:45:36.236Z,18.90
2022-08-25T06:48:03.346Z,19.00
2022-08-25T06:50:30.354Z,19.00
2022-08-25T06:52:57.425Z,19.10
2022-08-25T06:55:24.669Z,19.10
2022-08-25T06:57:55.089Z,19.20
2022-08-25T07:00:23.179Z,19.20
2022-08-25T07:02:58.940Z,19.20
2022-08-25T07:05:34.030Z,19.20
2022-08-25T07:08:12.110Z,19.30
2022-08-25T07:10:39.328Z,19.30
2022-08-25T07:13:06.560Z,19.40
2022-08-25T07:15:37.950Z,19.40
2022-08-25T07:18:05.830Z,19.50
2022-08-25T07:20:35.218Z,19.50
2022-08-25T07:23:02.615Z,19.50
2022-08-25T07:25:29.887Z,19.50
2022-08-25T07:27:58.952Z,19.70
2022-08-25T07:30:26.406Z,19.70
2022-08-25T07:32:55.185Z,19.80
2022-08-25T07:35:26.359Z,19.80
2022-08-25T07:37:57.182Z,19.90
2022-08-25T07:40:28.840Z,19.90
2022-08-25T07:42:57.213Z,19.90
2022-08-25T07:45:30.791Z,19.90
2022-08-25T07:48:02.943Z,19.90
2022-08-25T07:50:30.240Z,19.80
2022-08-25T07:52:58.605Z,19.90
2022-08-25T07:55:27.189Z,20.00
2022-08-25T07:57:57.151Z,19.90
2022-08-25T08:00:27.948Z,20.00
2022-08-25T08:02:55.375Z,20.00
2022-08-25T08:05:24.030Z,19.90
2022-08-25T08:07:52.098Z,19.80
2022-08-25T08:13:07.671Z,19.80
2022-08-25T08:15:35.899Z,19.90
2022-08-25T08:18:04.206Z,19.80
2022-08-25T08:20:42.275Z,20.10
2022-08-25T08:23:10.533Z,20.20
2022-08-25T08:25:37.807Z,20.20
2022-08-25T08:28:06.992Z,20.30
2022-08-25T08:30:34.583Z,20.30
2022-08-25T08:33:11.229Z,20.30
2022-08-25T08:35:43.395Z,20.30
2022-08-25T08:38:17.258Z,20.10
2022-08-25T08:41:14.495Z,20.00
2022-08-25T08:43:42.534Z,20.10
2022-08-25T08:46:09.788Z,20.20
2022-08-25T08:48:58.144Z,20.30
2022-08-25T08:51:33.129Z,20.40
2022-08-25T08:54:06.066Z,20.40
2022-08-25T08:56:47.995Z,20.30
2022-08-25T08:59:21.904Z,20.40
2022-08-25T09:02:01.202Z,20.30
2022-08-25T09:04:48.966Z,20.20
2022-08-25T09:07:22.337Z,20.40
2022-08-25T09:09:49.630Z,20.50
2022-08-25T09:12:34.867Z,20.60
2022-08-25T09:15:12.966Z,20.60
2022-08-25T09:17:54.763Z,20.60
2022-08-25T09:20:28.185Z,20.60
2022-08-25T09:23:13.146Z,20.70
2022-08-25T09:25:54.003Z,20.70
2022-08-25T09:28:31.696Z,20.80
2022-08-25T09:31:04.676Z,20.80
2022-08-25T09:33:35.395Z,20.60
2022-08-25T09:36:05.932Z,20.70
2022-08-25T09:38:33.773Z,20.80
2022-08-25T09:41:01.411Z,20.80
2022-08-25T09:43:57.888Z,20.70
2022-08-25T09:46:27.973Z,20.70
2022-08-25T09:48:57.824Z,20.80
2022-08-25T09:51:42.592Z,20.90
2022-08-25T09:54:15.916Z,20.90
2022-08-25T09:56:56.167Z,21.30
2022-08-25T09:59:35.096Z,21.10
2022-08-25T10:02:21.455Z,20.90
2022-08-25T10:04:48.808Z,21.00
2022-08-25T10:07:40.149Z,21.10
2022-08-25T10:10:18.492Z,21.20
2022-08-25T10:12:48.735Z,21.20
2022-08-25T10:15:39.856Z,21.40
2022-08-25T10:18:27.416Z,21.70
2022-08-25T10:21:15.272Z,21.60
2022-08-25T10:23:52.974Z,21.70
2022-08-25T10:26:55.972Z,21.80
2022-08-25T10:29:50.369Z,22.20
2022-08-25T10:32:58.490Z,22.20
2022-08-25T10:35:46.350Z,22.00
2022-08-25T10:38:45.456Z,22.00
2022-08-25T10:41:48.650Z,22.10
2022-08-25T10:44:58.794Z,22.10
2022-08-25T10:47:28.911Z,21.90
2022-08-25T10:50:02.677Z,22.20
2022-08-25T10:52:32.625Z,22.40
2022-08-25T10:55:12.584Z,22.70
2022-08-25T10:57:53.354Z,22.70
2022-08-25T11:00:23.208Z,22.70
2022-08-25T11:03:26.897Z,22.60
2022-08-25T11:05:58.804Z,22.50
2022-08-25T11:08:36.873Z,22.50
2022-08-25T11:11:35.002Z,22.70
2022-08-25T11:14:12.136Z,22.90
2022-08-25T11:17:02.259Z,23.10
2022-08-25T11:19:33.938Z,22.90
2022-08-25T11:22:27.333Z,23.00
2022-08-25T11:25:04.100Z,22.80
2022-08-25T11:27:54.463Z,22.90
2022-08-25T11:30:21.913Z,23.20
2022-08-25T11:32:51.610Z,23.40
2022-08-25T11:35:33.545Z,23.40
2022-08-25T11:38:05.409Z,23.40
2022-08-25T11:40:58.317Z,23.40
2022-08-25T11:43:41.260Z,23.20
2022-08-25T11:46:28.827Z,23.30
2022-08-25T11:49:21.776Z,23.50
2022-08-25T11:51:50.965Z,23.50
2022-08-25T11:54:28.544Z,23.30
2022-08-25T11:57:07.058Z,23.30
2022-08-25T12:00:01.156Z,23.60
2022-08-25T12:02:29.153Z,23.50
2022-08-25T12:04:56.729Z,23.70
2022-08-25T12:07:46.115Z,23.60
2022-08-25T12:10:18.863Z,23.60
2022-08-25T12:12:46.495Z,23.60
2022-08-25T12:15:29.415Z,23.50
2022-08-25T12:18:14.344Z,23.30
2022-08-25T12:20:54.913Z,23.10
2022-08-25T12:24:04.499Z,22.90
2022-08-25T12:26:57.728Z,22.90
2022-08-25T12:29:47.500Z,22.80
2022-08-25T12:32:23.632Z,22.70
2022-08-25T12:35:11.270Z,22.70
2022-08-25T12:38:05.034Z,22.60
2022-08-25T12:41:03.457Z,22.70
2022-08-25T12:43:33.308Z,22.80
2022-08-25T12:46:19.898Z,22.90
2022-08-25T12:49:12.411Z,22.90
2022-08-25T12:52:10.517Z,23.20
2022-08-25T12:54:47.517Z,23.40
2022-08-25T12:57:33.579Z,23.80
2022-08-25T13:00:05.693Z,24.10
2022-08-25T13:03:04.157Z,24.40
2022-08-25T13:05:41.356Z,24.60
2022-08-25T13:09:08.266Z,24.40
2022-08-25T13:11:41.416Z,24.20
2022-08-25T13:14:44.218Z,24.20
2022-08-25T13:17:12.073Z,24.10
2022-08-25T13:19:39.257Z,24.10
2022-08-25T13:22:19.834Z,24.00
2022-08-25T13:24:47.519Z,24.10
2022-08-25T13:27:23.028Z,24.20
2022-08-25T13:29:54.731Z,24.30
2022-08-25T13:32:35.315Z,24.30
2022-08-25T13:35:21.493Z,24.30
2022-08-25T13:37:49.566Z,24.30
2022-08-25T13:40:29.345Z,24.20
2022-08-25T13:43:09.252Z,24.20
2022-08-25T13:45:42.674Z,24.30
2022-08-25T13:48:20.881Z,24.40
2022-08-25T13:50:51.693Z,24.50
2022-08-25T13:53:26.333Z,24.50
2022-08-25T13:55:58.844Z,24.80
2022-08-25T13:58:44.438Z,24.90
2022-08-25T14:01:22.916Z,24.90
2022-08-25T14:04:23.744Z,24.60
2022-08-25T14:07:06.087Z,24.60
2022-08-25T14:09:48.387Z,24.60
2022-08-25T14:12:29.409Z,24.80
2022-08-25T14:15:22.886Z,25.00
2022-08-25T14:18:01.109Z,24.80
2022-08-25T14:20:31.211Z,24.60
2022-08-25T14:23:09.725Z,24.60
2022-08-25T14:25:40.560Z,24.80
2022-08-25T14:28:17.698Z,24.90
2022-08-25T14:30:56.629Z,24.80
2022-08-25T14:33:27.703Z,24.80
2022-08-25T14:35:55.204Z,24.90
2022-08-25T14:38:23.705Z,25.10
2022-08-25T14:40:51.387Z,25.20
2022-08-25T14:43:23.861Z,25.50
2022-08-25T14:45:51.865Z,25.60
2022-08-25T14:48:33.165Z,25.70
2022-08-25T14:51:00.364Z,25.70
2022-08-25T14:53:28.619Z,25.50
2022-08-25T14:55:58.791Z,25.40
2022-08-25T14:58:27.113Z,25.30
2022-08-25T15:00:54.550Z,25.10
2022-08-25T15:03:30.091Z,25.10
2022-08-25T15:06:00.171Z,25.00
2022-08-25T15:08:45.953Z,25.00
2022-08-25T15:11:15.038Z,24.90
2022-08-25T15:13:49.013Z,24.90
2022-08-25T15:16:34.979Z,24.80
2022-08-25T15:19:07.384Z,24.80
2022-08-25T15:21:36.288Z,24.90
2022-08-25T15:24:05.191Z,24.90
2022-08-25T15:26:34.523Z,24.90
2022-08-25T15:29:03.849Z,24.90
2022-08-25T15:31:31.160Z,24.80
2022-08-25T15:33:59.589Z,24.70
2022-08-25T15:36:27.100Z,24.70
2022-08-25T15:38:54.519Z,24.70
2022-08-25T15:41:27.073Z,24.60
2022-08-25T15:43:56.614Z,24.60
2022-08-25T15:46:24.773Z,24.70
2022-08-25T15:48:52.267Z,24.70
2022-08-25T15:51:19.542Z,24.80
2022-08-25T15:53:46.779Z,24.90
2022-08-25T15:56:26.363Z,24.90
2022-08-25T15:58:55.638Z,25.00
2022-08-25T16:01:26.978Z,25.10
2022-08-25T16:03:54.808Z,25.00
2022-08-25T16:06:22.412Z,24.80
2022-08-25T16:08:50.157Z,24.80
2022-08-25T16:11:28.442Z,24.50
2022-08-25T16:13:57.517Z,24.40
2022-08-25T16:16:26.357Z,24.20
2022-08-25T16:18:53.795Z,24.20
2022-08-25T16:21:26.145Z,24.00
2022-08-25T16:23:58.499Z,24.10
2022-08-25T16:26:26.549Z,24.00
2022-08-25T16:28:53.667Z,24.00
2022-08-25T16:31:21.053Z,23.80
2022-08-25T16:33:48.899Z,23.80
2022-08-25T16:36:18.537Z,23.70
2022-08-25T16:38:49.037Z,23.80
2022-08-25T16:41:18.714Z,23.60
2022-08-25T16:43:45.910Z,23.60
2022-08-25T16:46:14.355Z,23.50
2022-08-25T16:48:42.197Z,23.50
2022-08-25T16:51:13.147Z,23.40
2022-08-25T16:54:00.031Z,23.30
2022-08-25T16:56:28.797Z,23.10
2022-08-25T16:58:57.141Z,22.90
2022-08-25T17:01:25.422Z,23.00
2022-08-25T17:03:53.545Z,22.80
2022-08-25T17:06:21.331Z,22.80
2022-08-25T17:08:51.171Z,22.80
2022-08-25T17:11:27.076Z,22.60
2022-08-25T17:13:55.907Z,22.50
2022-08-25T17:16:27.994Z,22.40
2022-08-25T17:18:55.587Z,22.30
2022-08-25T17:21:24.595Z,22.30
2022-08-25T17:23:53.358Z,22.20
2022-08-25T17:26:20.553Z,22.20
2022-08-25T17:28:55.607Z,22.10
2022-08-25T17:31:23.242Z,22.10
2022-08-25T17:33:52.442Z,22.10
2022-08-25T17:36:19.782Z,22.10
2022-08-25T17:38:55.030Z,22.00
2022-08-25T17:41:24.086Z,21.90
2022-08-25T17:43:51.268Z,21.90
2022-08-25T17:46:18.548Z,21.90
2022-08-25T17:48:46.409Z,21.80
2022-08-25T17:51:15.881Z,21.60
2022-08-25T17:53:43.897Z,21.60
2022-08-25T17:56:18.671Z,21.60
2022-08-25T17:58:47.566Z,21.50
2022-08-25T18:01:19.736Z,21.50
2022-08-25T18:03:49.701Z,21.20
2022-08-25T18:06:17.056Z,21.30
2022-08-25T18:08:44.594Z,21.30
2022-08-25T18:11:18.962Z,21.10
2022-08-25T18:13:46.125Z,21.00
2022-08-25T18:16:13.518Z,20.90
2022-08-25T18:18:41.355Z,20.90
2022-08-25T18:21:13.348Z,20.90
2022-08-25T18:23:40.752Z,20.80
2022-08-25T18:26:08.639Z,20.80
2022-08-25T18:28:40.675Z,20.80
2022-08-25T18:31:13.212Z,20.80
2022-08-25T18:33:42.268Z,20.70
2022-08-25T18:36:09.897Z,20.70
2022-08-25T18:38:58.171Z,20.70
2022-08-25T18:41:26.184Z,20.70
2022-08-25T18:43:53.641Z,20.60
2022-08-25T18:46:22.790Z,20.40
2022-08-25T18:48:52.804Z,20.40
2022-08-25T18:51:23.007Z,20.40
2022-08-25T18:53:54.706Z,20.30
2022-08-25T18:56:27.111Z,20.30
2022-08-25T18:58:54.242Z,20.20
2022-08-25T19:01:21.806Z,20.30
2022-08-25T19:03:49.917Z,20.10
2022-08-25T19:06:17.497Z,20.00
2022-08-25T19:08:46.674Z,20.10
2022-08-25T19:11:14.910Z,20.00
2022-08-25T19:13:43.721Z,20.10
2022-08-25T19:16:17.813Z,20.10
2022-08-25T19:18:47.892Z,20.00
2022-08-25T19:21:15.122Z,20.00
2022-08-25T19:23:42.519Z,20.00
2022-08-25T19:26:17.033Z,20.00
2022-08-25T19:28:48.936Z,20.00
2022-08-25T19:31:20.795Z,19.90
2022-08-25T19:33:49.266Z,19.80
2022-08-25T19:36:17.125Z,19.80
2022-08-25T19:38:44.691Z,19.90
2022-08-25T19:41:14.863Z,19.90
2022-08-25T19:43:55.559Z,19.90
2022-08-25T19:46:33.131Z,20.00
2022-08-25T19:49:08.974Z,19.90
2022-08-25T19:51:44.656Z,19.80
2022-08-25T19:54:13.459Z,19.80
2022-08-25T19:56:43.900Z,19.70
2022-08-25T19:59:25.292Z,19.80
2022-08-25T20:01:53.218Z,19.70
2022-08-25T20:04:21.138Z,19.70
2022-08-25T20:06:52.466Z,19.70
2022-08-25T20:09:38.603Z,19.60
2022-08-25T20:12:08.204Z,19.60
2022-08-25T20:14:36.720Z,19.60
2022-08-25T20:17:04.322Z,19.60
2022-08-25T20:19:42.014Z,19.60
2022-08-25T20:22:11.232Z,19.60
2022-08-25T20:24:56.125Z,19.60
2022-08-25T20:27:33.752Z,19.50
2022-08-25T20:30:02.779Z,19.40
2022-08-25T20:32:32.289Z,19.30
2022-08-25T20:35:00.291Z,19.40
2022-08-25T20:37:27.627Z,20.00
2022-08-25T20:39:55.632Z,19.30
2022-08-25T20:42:23.010Z,19.40
2022-08-25T20:44:50.445Z,19.20
2022-08-25T20:47:20.911Z,19.10
2022-08-25T20:49:49.075Z,19.10
2022-08-25T20:52:18.779Z,19.10
2022-08-25T20:54:49.312Z,19.10
2022-08-25T20:57:18.281Z,19.00
2022-08-25T20:59:51.948Z,19.10
2022-08-25T21:02:19.500Z,19.00
2022-08-25T21:04:50.240Z,18.80
2022-08-25T21:07:18.640Z,18.90
2022-08-25T21:09:46.155Z,18.90
2022-08-25T21:12:13.571Z,18.90
2022-08-25T21:14:41.800Z,18.80
2022-08-25T21:17:12.057Z,18.80
2022-08-25T21:19:40.247Z,18.80
2022-08-25T21:22:10.866Z,19.00
2022-08-25T21:24:38.624Z,18.90
2022-08-25T21:27:06.225Z,18.80
2022-08-25T21:29:33.830Z,18.70
2022-08-25T21:32:01.162Z,18.80
2022-08-25T21:34:29.548Z,18.70
2022-08-25T21:37:00.219Z,18.50
2022-08-25T21:39:28.288Z,18.60
2022-08-25T21:41:56.838Z,18.60
2022-08-25T21:44:24.348Z,18.70
2022-08-25T21:46:54.557Z,18.70
2022-08-25T21:49:22.428Z,18.80
2022-08-25T21:51:59.574Z,18.90
2022-08-25T21:54:28.607Z,18.80
2022-08-25T21:57:02.939Z,18.70
2022-08-25T21:59:32.644Z,18.60
2022-08-25T22:02:01.871Z,18.60
2022-08-25T22:04:29.229Z,18.60
2022-08-25T22:06:57.443Z,18.60
2022-08-25T22:09:25.864Z,18.60
2022-08-25T22:11:54.553Z,18.60
2022-08-25T22:14:22.191Z,18.60
2022-08-25T22:16:49.391Z,18.50
2022-08-25T22:19:16.908Z,18.40
2022-08-25T22:21:44.834Z,18.40
2022-08-25T22:24:12.093Z,18.30
2022-08-25T22:26:39.528Z,18.30
2022-08-25T22:29:07.864Z,18.30
2022-08-25T22:31:35.463Z,18.30
2022-08-25T22:34:03.191Z,18.40
2022-08-25T22:36:32.623Z,18.50
2022-08-25T22:39:00.134Z,18.60
2022-08-25T22:41:28.608Z,18.40
2022-08-25T22:43:56.973Z,18.50
2022-08-25T22:46:29.289Z,18.50
2022-08-25T22:48:57.944Z,18.40
2022-08-25T22:51:27.489Z,18.20
2022-08-25T22:53:54.829Z,18.20
2022-08-25T22:56:31.065Z,18.10
2022-08-25T22:59:06.258Z,18.00
2022-08-25T23:01:33.686Z,18.00
2022-08-25T23:04:01.281Z,18.10
2022-08-25T23:06:29.705Z,18.10
2022-08-25T23:08:57.166Z,18.00
2022-08-25T23:11:24.550Z,18.10
2022-08-25T23:13:54.003Z,18.10
2022-08-25T23:16:22.705Z,18.10
2022-08-25T23:18:49.982Z,17.90
2022-08-25T23:21:41.033Z,17.90
2022-08-25T23:24:12.861Z,17.80
2022-08-25T23:26:42.426Z,17.80
2022-08-25T23:29:18.488Z,17.80
2022-08-25T23:31:47.727Z,17.80
2022-08-25T23:34:16.100Z,17.70
2022-08-25T23:36:43.820Z,17.70
2022-08-25T23:39:11.139Z,17.70
2022-08-25T23:41:38.367Z,17.70
2022-08-25T23:44:06.075Z,17.70
2022-08-25T23:46:35.737Z,17.70
2022-08-25T23:49:05.778Z,17.70
2022-08-25T23:51:37.150Z,17.60
2022-08-25T23:54:06.590Z,17.60
2022-08-25T23:56:36.642Z,17.60
2022-08-25T23:59:10.830Z,17.60
